createdAt,value
2024-03-16T00:00:52.042Z,7.90
2024-03-16T00:03:19.907Z,7.85
2024-03-16T00:05:47.629Z,7.80
2024-03-16T00:08:14.372Z,7.74
2024-03-16T00:10:41.334Z,7.70
2024-03-16T00:13:08.235Z,7.69
2024-03-16T00:15:35.068Z,7.66
2024-03-16T00:18:01.872Z,7.64
2024-03-16T00:20:28.626Z,7.63
2024-03-16T00:22:55.373Z,7.61
2024-03-16T00:25:22.127Z,7.62
2024-03-16T00:27:50.788Z,7.60
2024-03-16T00:30:17.530Z,7.60
2024-03-16T00:32:44.287Z,7.59
2024-03-16T00:35:11.201Z,7.61
2024-03-16T00:37:38.011Z,7.59
2024-03-16T00:40:08.648Z,7.59
2024-03-16T00:42:35.475Z,7.59
2024-03-16T00:45:02.533Z,7.57
2024-03-16T00:47:29.272Z,7.56
2024-03-16T00:49:55.966Z,7.56
2024-03-16T00:52:22.733Z,7.57
2024-03-16T00:54:49.465Z,7.59
2024-03-16T00:57:16.267Z,7.60
2024-03-16T00:59:42.982Z,7.59
2024-03-16T01:02:09.905Z,7.60
2024-03-16T01:04:38.003Z,7.61
2024-03-16T01:07:04.777Z,7.60
2024-03-16T01:09:32.123Z,7.60
2024-03-16T01:11:58.840Z,7.61
2024-03-16T01:14:25.573Z,7.58
2024-03-16T01:16:52.255Z,7.60
2024-03-16T01:19:19.816Z,7.62
2024-03-16T01:21:46.543Z,7.64
2024-03-16T01:24:13.316Z,7.63
2024-03-16T01:26:40.001Z,7.60
2024-03-16T01:29:11.893Z,7.63
2024-03-16T01:31:38.733Z,7.63
2024-03-16T01:34:05.505Z,7.65
2024-03-16T01:36:32.299Z,7.65
2024-03-16T01:38:59.044Z,7.66
2024-03-16T01:41:26.050Z,7.64
2024-03-16T01:43:52.839Z,7.63
2024-03-16T01:46:19.774Z,7.61
2024-03-16T01:48:47.587Z,7.63
2024-03-16T01:51:14.307Z,7.64
2024-03-16T01:53:41.038Z,7.64
2024-03-16T01:56:07.843Z,7.59
2024-03-16T01:58:44.520Z,7.59
2024-03-16T02:01:11.410Z,7.58
2024-03-16T02:03:38.874Z,7.57
2024-03-16T02:06:06.655Z,7.58
2024-03-16T02:08:33.428Z,7.57
2024-03-16T02:11:00.270Z,7.56
2024-03-16T02:13:26.962Z,7.56
2024-03-16T02:15:53.638Z,7.55
2024-03-16T02:18:20.319Z,7.53
2024-03-16T02:20:47.282Z,7.54
2024-03-16T02:23:14.391Z,7.52
2024-03-16T02:25:41.072Z,7.51
2024-03-16T02:28:09.387Z,7.50
2024-03-16T02:30:37.335Z,7.50
2024-03-16T02:33:08.262Z,7.50
2024-03-16T02:35:34.955Z,7.49
2024-03-16T02:38:01.627Z,7.50
2024-03-16T02:40:29.483Z,7.53
2024-03-16T02:42:56.388Z,7.51
2024-03-16T02:45:23.226Z,7.51
2024-03-16T02:47:50.081Z,7.53
2024-03-16T02:50:16.880Z,7.55
2024-03-16T02:52:43.616Z,7.56
2024-03-16T02:55:10.627Z,7.59
2024-03-16T02:57:37.535Z,7.60
2024-03-16T03:00:12.429Z,7.60
2024-03-16T03:02:39.918Z,7.60
2024-03-16T03:05:12.315Z,7.61
2024-03-16T03:07:39.544Z,7.62
2024-03-16T03:10:08.754Z,7.61
2024-03-16T03:12:35.647Z,7.61
2024-03-16T03:15:02.493Z,7.63
2024-03-16T03:17:29.231Z,7.63
2024-03-16T03:19:55.943Z,7.62
2024-03-16T03:22:22.598Z,7.61
2024-03-16T03:24:49.268Z,7.62
2024-03-16T03:27:16.063Z,7.62
2024-03-16T03:29:42.730Z,7.63
2024-03-16T03:32:09.389Z,7.64
2024-03-16T03:34:36.147Z,7.64
2024-03-16T03:37:02.942Z,7.65
2024-03-16T03:39:29.730Z,7.64
2024-03-16T03:41:56.572Z,7.62
2024-03-16T03:44:25.455Z,7.61
2024-03-16T03:46:52.923Z,7.63
2024-03-16T03:49:37.321Z,7.64
2024-03-16T03:52:05.887Z,7.61
2024-03-16T03:54:34.659Z,7.61
2024-03-16T03:57:01.636Z,7.61
2024-03-16T03:59:28.656Z,7.59
2024-03-16T04:01:55.524Z,7.57
2024-03-16T04:04:23.216Z,7.54
2024-03-16T04:06:50.160Z,7.53
2024-03-16T04:09:16.912Z,7.51
2024-03-16T04:11:43.684Z,7.50
2024-03-16T04:14:10.413Z,7.47
2024-03-16T04:16:37.107Z,7.42
2024-03-16T04:19:04.651Z,7.40
2024-03-16T04:21:31.973Z,7.33
2024-03-16T04:23:58.752Z,7.27
2024-03-16T04:26:26.320Z,7.18
2024-03-16T04:28:53.183Z,7.10
2024-03-16T04:31:19.852Z,7.02
2024-03-16T04:33:46.707Z,6.93
2024-03-16T04:36:14.020Z,6.85
2024-03-16T04:38:41.099Z,6.78
2024-03-16T04:41:07.861Z,6.71
2024-03-16T04:43:35.291Z,6.62
2024-03-16T04:46:02.301Z,6.54
2024-03-16T04:48:29.142Z,6.45
2024-03-16T04:50:57.180Z,6.37
2024-03-16T04:53:24.240Z,6.27
2024-03-16T04:55:53.704Z,6.21
2024-03-16T04:58:20.583Z,6.12
2024-03-16T05:00:47.581Z,6.06
2024-03-16T05:03:14.443Z,5.98
2024-03-16T05:05:41.209Z,5.89
2024-03-16T05:08:08.956Z,5.81
2024-03-16T05:10:36.042Z,5.72
2024-03-16T05:13:02.990Z,5.65
2024-03-16T05:15:29.912Z,5.58
2024-03-16T05:17:57.054Z,5.52
2024-03-16T05:20:23.910Z,5.46
2024-03-16T05:22:50.577Z,5.40
2024-03-16T05:25:17.503Z,5.33
2024-03-16T05:27:44.357Z,5.26
2024-03-16T05:30:12.819Z,5.19
2024-03-16T05:32:42.260Z,5.12
2024-03-16T05:35:09.864Z,5.04
2024-03-16T05:37:37.104Z,4.97
2024-03-16T05:40:04.772Z,4.91
2024-03-16T05:42:32.397Z,4.84
2024-03-16T05:45:00.977Z,4.80
2024-03-16T05:47:28.048Z,4.74
2024-03-16T05:49:55.919Z,4.69
2024-03-16T05:52:22.658Z,4.62
2024-03-16T05:54:49.461Z,4.57
2024-03-16T05:57:18.675Z,4.53
2024-03-16T05:59:45.499Z,4.48
2024-03-16T06:02:12.333Z,4.42
2024-03-16T06:04:39.166Z,4.37
2024-03-16T06:07:06.619Z,4.32
2024-03-16T06:09:33.490Z,4.28
2024-03-16T06:12:00.562Z,4.25
2024-03-16T06:14:27.204Z,4.21
2024-03-16T06:16:54.544Z,4.17
2024-03-16T06:19:21.369Z,4.15
2024-03-16T06:21:48.133Z,4.11
2024-03-16T06:24:15.007Z,4.06
2024-03-16T06:26:42.771Z,4.01
2024-03-16T06:29:13.435Z,3.99
2024-03-16T06:31:42.373Z,3.95
2024-03-16T06:34:09.612Z,3.91
2024-03-16T06:36:37.572Z,3.88
2024-03-16T06:39:12.026Z,3.85
2024-03-16T06:41:39.075Z,3.81
2024-03-16T06:44:05.962Z,3.79
2024-03-16T06:46:33.498Z,3.77
2024-03-16T06:49:06.947Z,3.76
2024-03-16T06:51:34.602Z,3.76
2024-03-16T06:54:01.710Z,3.75
2024-03-16T06:56:28.424Z,3.74
2024-03-16T06:58:55.078Z,3.71
2024-03-16T07:01:22.123Z,3.70
2024-03-16T07:03:49.067Z,3.70
2024-03-16T07:06:15.836Z,3.71
2024-03-16T07:08:42.537Z,3.71
2024-03-16T07:11:09.297Z,3.71
2024-03-16T07:13:36.574Z,3.74
2024-03-16T07:16:03.463Z,3.76
2024-03-16T07:18:30.330Z,3.79
2024-03-16T07:21:00.080Z,3.83
2024-03-16T07:23:27.786Z,3.88
2024-03-16T07:25:54.451Z,3.91
2024-03-16T07:28:21.180Z,3.96
2024-03-16T07:30:47.897Z,4.02
2024-03-16T07:33:15.182Z,4.07
2024-03-16T07:35:43.740Z,4.12
2024-03-16T07:38:10.468Z,4.18
2024-03-16T07:40:37.303Z,4.27
2024-03-16T07:43:04.266Z,4.35
2024-03-16T07:45:31.066Z,4.47
2024-03-16T07:48:00.009Z,4.59
2024-03-16T07:50:26.795Z,4.72
2024-03-16T07:52:53.926Z,4.86
2024-03-16T07:55:20.643Z,5.01
2024-03-16T07:57:47.430Z,5.17
2024-03-16T08:00:14.631Z,5.31
2024-03-16T08:02:41.629Z,5.44
2024-03-16T08:05:12.436Z,5.60
2024-03-16T08:07:43.103Z,5.73
2024-03-16T08:10:13.370Z,5.86
2024-03-16T08:12:40.979Z,5.96
2024-03-16T08:15:09.262Z,6.06
2024-03-16T08:17:35.937Z,6.16
2024-03-16T08:20:02.676Z,6.23
2024-03-16T08:22:29.394Z,6.31
2024-03-16T08:24:56.179Z,6.42
2024-03-16T08:27:25.927Z,6.54
2024-03-16T08:29:56.399Z,6.64
2024-03-16T08:32:23.698Z,6.71
2024-03-16T08:34:53.138Z,6.80
2024-03-16T08:37:19.949Z,6.89
2024-03-16T08:39:47.273Z,6.96
2024-03-16T08:42:15.700Z,7.04
2024-03-16T08:44:42.480Z,7.12
2024-03-16T08:47:09.588Z,7.20
2024-03-16T08:49:36.335Z,7.27
2024-03-16T08:52:03.177Z,7.36
2024-03-16T08:54:31.232Z,7.41
2024-03-16T08:56:58.120Z,7.48
2024-03-16T08:59:24.794Z,7.52
2024-03-16T09:01:51.668Z,7.60
2024-03-16T09:04:18.722Z,7.68
2024-03-16T09:06:46.347Z,7.73
2024-03-16T09:09:13.183Z,7.82
2024-03-16T09:11:40.047Z,7.91
2024-03-16T09:14:08.644Z,8.02
2024-03-16T09:16:41.932Z,8.11
2024-03-16T09:19:09.098Z,8.22
2024-03-16T09:21:35.953Z,8.37
2024-03-16T09:24:02.771Z,8.56
2024-03-16T09:26:29.447Z,8.70
2024-03-16T09:28:56.211Z,8.87
2024-03-16T09:31:28.689Z,9.04
2024-03-16T09:33:55.556Z,9.18
2024-03-16T09:36:22.375Z,9.23
2024-03-16T09:38:49.237Z,9.23
2024-03-16T09:41:20.753Z,9.29
